Date,TemperatureHighF,TemperatureAvgF,TemperatureLowF,DewpointHighF,DewpointAvgF,DewpointLowF,HumidityHigh,HumidityAvg,HumidityLow,PressureMaxIn,PressureMinIn,WindSpeedMaxMPH,WindSpeedAvgMPH,GustSpeedMaxMPH,PrecipitationSumIn
2013-8-1,80.0,71.3,63.3,66.6,62.6,60.9,94,76,53,29.99,29.83,9,0,9,0.00
2013-8-2,82.9,71.4,64.1,68.6,63.3,59.1,98,78,49,29.83,29.73,15,0,15,0.16
2013-8-3,78.5,71.2,66.1,64.7,63.0,61.2,90,76,56,29.81,29.72,7,0,11,0.00
2013-8-4,80.3,68.5,58.8,62.3,58.1,54.0,92,71,42,29.83,29.70,9,0,9,0.00
2013-8-5,77.6,65.2,55.8,57.1,50.0,43.0,88,62,30,29.99,29.83,9,0,9,0.00
2013-8-6,78.4,64.7,50.3,56.5,52.4,47.8,92,68,43,30.09,29.98,7,0,7,0.00
2013-8-7,79.7,67.5,55.5,60.4,54.8,48.8,96,67,37,30.13,30.05,8,0,8,0.00
2013-8-8,79.5,71.3,64.3,70.7,65.7,54.0,94,83,69,30.08,29.95,11,1,11,0.08
2013-8-9,74.3,72.5,71.2,73.2,70.8,68.9,98,94,90,29.97,29.69,11,1,11,0.86
2013-8-10,83.8,73.8,63.2,72.4,62.8,55.4,98,72,40,29.94,29.73,12,0,12,0.00
2013-8-11,80.5,67.5,54.5,59.9,55.7,50.0,95,69,43,30.02,29.94,8,0,8,0.00
2013-8-12,81.8,70.8,61.2,64.7,59.6,54.0,91,70,43,29.97,29.86,10,0,10,0.00
2013-8-13,75.8,68.2,64.3,67.4,64.1,61.4,93,87,69,29.86,29.63,5,0,5,0.01
2013-8-14,74.8,67.0,60.8,63.1,55.5,51.3,95,68,48,29.90,29.60,15,1,15,0.00
2013-8-15,77.3,65.3,53.8,55.0,52.4,48.7,91,66,41,30.05,29.90,10,0,10,0.00
2013-8-16,79.7,67.5,54.9,58.6,55.0,52.0,91,67,40,30.13,30.05,13,0,13,0.00
2013-8-17,79.7,67.5,56.4,61.4,57.6,54.4,94,73,46,30.22,30.13,7,0,7,0.00
2013-8-18,79.0,68.7,60.2,63.8,60.1,55.0,95,76,45,30.21,30.02,9,0,9,0.00
2013-8-19,82.0,70.7,59.2,63.9,60.2,56.3,91,71,46,30.03,29.88,8,0,8,0.00
2013-8-20,86.3,74.3,63.0,66.0,62.6,57.6,92,69,38,30.03,29.91,9,0,9,0.00
2013-8-21,88.5,74.6,62.5,66.8,63.7,59.9,93,72,44,30.08,29.77,12,0,12,0.00
2013-8-22,83.9,74.4,66.6,72.2,67.1,63.2,90,79,56,29.94,29.77,12,1,14,0.00
2013-8-23,76.9,73.1,62.6,68.7,61.9,52.5,87,68,50,30.05,29.79,7,1,14,0.00
2013-8-24,76.8,65.6,56.3,53.7,48.9,41.2,82,57,32,30.27,30.06,9,0,9,0.00
2013-8-25,82.7,67.7,52.6,57.6,53.5,48.7,94,64,37,30.30,30.13,11,0,11,0.00
2013-8-26,78.9,71.2,65.5,66.7,62.0,55.9,82,73,60,30.13,29.81,16,1,17,0.00
2013-8-27,80.0,70.6,64.1,69.3,66.7,62.6,98,88,65,29.83,29.77,7,0,7,0.04
2013-8-28,79.3,67.9,60.7,68.0,63.6,59.5,98,87,64,29.92,29.80,6,0,6,0.00
2013-8-29,64.8,62.6,60.9,63.9,60.9,57.6,98,94,89,30.01,29.89,9,0,9,0.02
2013-8-30,82.0,69.5,61.5,67.9,63.4,58.1,91,82,61,29.97,29.76,10,0,10,0.00
2013-8-31,80.2,73.5,68.9,73.6,70.3,66.8,97,90,79,29.77,29.73,11,0,11,0.05